首页
METAR-TAF:

METAR-TAF

机场 :

郑州, 中华人民共和国

郑州新郑国际机场

纬度: 34-43N, 经度: 113-39E, 海拔: 111米

当前天气观测

该预报发布于49分钟前的05:00 UTC
风速6节,风向,在西南之间变化
温度 9°C
湿度 27%
气压 1025 hPa
能见度10公里或以上
1500米以下无云,无积雨云

METAR: ZHCC 250500Z 18003MPS 100V230 CAVOK 09/M09 Q1025 NOSIG

时间: 13:49 (05:49 UTC)

预报

该预报发布于2小时和41分钟前的03:08 UTC
预报有效从25日的 06点(UTC)到 26日的 06点(UTC)
风速6节,风向
能见度10公里或以上
1500米以下无云,无积雨云

TAF: ZHCC 250308Z 2506/2606 18003MPS CAVOK TX12/2507Z TN01/2522Z

超过4000个机场的气象观测和天气预报(METAR&TAF报告)。

可查询的气象台以黄色和红色小点在地图上表示。

将鼠标移到小点上方,可查看气象台名称。

然后点击查看天气观测和预报。

如需切换地图:点击带黑十字的绿色按钮放大地图;点击带横线的绿色按钮缩小地图;或者点击绿色箭头查看邻近地区的地图。


METAR-TAF: